RJEO(METAR)
10/16 14:00
RJEO 160500Z 24023KT 9999 RA SCT020 BKN030 BKN040 13/08 Q1020 RMK
A3014=
戻る
トップページへ戻る
IMOC Co,.Ltd.